Terminal Aerodrome Forecast
Issued by NWS

Home | Current Version | Previous Version | Graphics & Text | Print | Product List | Glossary On
Versions: 1 2 3 4 5 6 7 8 9 10 11 12 13 14 15 16
000
FTUS42 KMHX 261136
TAFISO
TAF
KISO 261136Z 2612/2712 00000KT P6SM BKN250
     FM261400 18006KT P6SM BKN045
     FM261700 17007KT P6SM SCT045
     FM270900 VRB03KT 5SM BR SCT025
      AMD LTD TO CLD VIS AND WIND=

USA.gov is the U.S. government's official web portal to all federal, state and local government web resources and services.